JA86GR PANC-PAFA
Flight info
| Callsign | JA86GR |
|---|---|
| Flight time | 0h 49m |
| Altitude | 25000 |
| Route | CAWIN LIBER5 |
| Aircraft | HDJT/L-SABDGRWY/H |
Departure
| Time | 2026-04-20 22:29 |
|---|---|
| Airport | Ted Stevens Anchorage International Airport (PANC) |
Arrival
| Time | 2026-04-20 23:18 |
|---|---|
| Airport | Fairbanks International Airport (PAFA) |
| Time | Latitude | Longitude | Altitude | Speed | Heading |
|---|---|---|---|---|---|
| 2026-04-20 22:09 | 61.17394 | -149.99029 | 135 ft | 0 kts | 70° |
| 2026-04-20 22:21 | 61.17379 | -149.99000 | 135 ft | 6 kts | 171° |
| 2026-04-20 22:22 | 61.17337 | -149.98919 | 135 ft | 10 kts | 104° |
| 2026-04-20 22:22 | 61.17272 | -149.98810 | 135 ft | 18 kts | 171° |
| 2026-04-20 22:22 | 61.17167 | -149.98966 | 135 ft | 20 kts | 228° |
| 2026-04-20 22:22 | 61.17125 | -149.99208 | 135 ft | 17 kts | 269° |
| 2026-04-20 22:23 | 61.17124 | -149.99430 | 135 ft | 14 kts | 270° |
| 2026-04-20 22:23 | 61.17123 | -149.99611 | 135 ft | 12 kts | 268° |
| 2026-04-20 22:23 | 61.17123 | -149.99779 | 134 ft | 15 kts | 270° |
| 2026-04-20 22:23 | 61.17123 | -150.00028 | 134 ft | 17 kts | 270° |
| 2026-04-20 22:24 | 61.17123 | -150.00258 | 133 ft | 15 kts | 269° |
| 2026-04-20 22:24 | 61.17123 | -150.00449 | 133 ft | 12 kts | 269° |
| 2026-04-20 22:24 | 61.17118 | -150.00615 | 133 ft | 11 kts | 271° |
| 2026-04-20 22:24 | 61.17113 | -150.00757 | 133 ft | 9 kts | 244° |
| 2026-04-20 22:25 | 61.17067 | -150.00810 | 134 ft | 8 kts | 188° |
| 2026-04-20 22:25 | 61.17012 | -150.00792 | 135 ft | 6 kts | 150° |
| 2026-04-20 22:25 | 61.16979 | -150.00731 | 136 ft | 7 kts | 115° |
| 2026-04-20 22:25 | 61.16976 | -150.00697 | 135 ft | 0 kts | 90° |
| 2026-04-20 22:28 | 61.16970 | -150.00271 | 134 ft | 72 kts | 91° |
| 2026-04-20 22:29 | 61.16978 | -149.98715 | 271 ft | 126 kts | 92° |
| 2026-04-20 22:29 | 61.17056 | -149.96646 | 776 ft | 162 kts | 90° |
| 2026-04-20 22:29 | 61.17145 | -149.94157 | 1337 ft | 186 kts | 90° |
| 2026-04-20 22:29 | 61.17234 | -149.91317 | 2032 ft | 202 kts | 91° |
| 2026-04-20 22:30 | 61.17321 | -149.88452 | 3104 ft | 206 kts | 90° |
| 2026-04-20 22:30 | 61.17400 | -149.85694 | 3873 ft | 216 kts | 91° |
| 2026-04-20 22:30 | 61.17486 | -149.82559 | 4947 ft | 218 kts | 91° |
| 2026-04-20 22:30 | 61.17504 | -149.79420 | 5923 ft | 220 kts | 104° |
| 2026-04-20 22:31 | 61.16836 | -149.76667 | 6886 ft | 213 kts | 140° |
| 2026-04-20 22:31 | 61.15558 | -149.75357 | 7823 ft | 208 kts | 176° |
| 2026-04-20 22:31 | 61.14119 | -149.75687 | 8778 ft | 210 kts | 195° |
| 2026-04-20 22:31 | 61.12686 | -149.76424 | 9728 ft | 214 kts | 195° |
| 2026-04-20 22:32 | 61.11239 | -149.77152 | 10590 ft | 217 kts | 195° |
| 2026-04-20 22:32 | 61.09759 | -149.77885 | 11488 ft | 219 kts | 195° |
| 2026-04-20 22:32 | 61.08257 | -149.78627 | 12374 ft | 223 kts | 195° |
| 2026-04-20 22:32 | 61.06762 | -149.79408 | 13264 ft | 225 kts | 202° |
| 2026-04-20 22:33 | 61.05505 | -149.81326 | 14092 ft | 227 kts | 233° |
| 2026-04-20 22:33 | 61.04820 | -149.84255 | 14891 ft | 232 kts | 252° |
| 2026-04-20 22:33 | 61.04723 | -149.87617 | 15705 ft | 239 kts | 274° |
| 2026-04-20 22:33 | 61.05318 | -149.90890 | 16477 ft | 251 kts | 298° |
| 2026-04-20 22:34 | 61.06590 | -149.93425 | 17242 ft | 266 kts | 323° |
| 2026-04-20 22:34 | 61.08408 | -149.94556 | 18003 ft | 283 kts | 352° |
| 2026-04-20 22:34 | 61.10384 | -149.94083 | 18650 ft | 292 kts | 7° |
| 2026-04-20 22:34 | 61.12388 | -149.93127 | 19262 ft | 297 kts | 8° |
| 2026-04-20 22:35 | 61.14430 | -149.92215 | 19868 ft | 301 kts | 6° |
| 2026-04-20 22:35 | 61.16486 | -149.91430 | 20465 ft | 305 kts | 6° |
| 2026-04-20 22:35 | 61.18594 | -149.90602 | 21086 ft | 309 kts | 6° |
| 2026-04-20 22:35 | 61.20719 | -149.89712 | 21688 ft | 313 kts | 7° |
| 2026-04-20 22:36 | 61.22849 | -149.88831 | 22288 ft | 316 kts | 6° |
| 2026-04-20 22:36 | 61.25035 | -149.87942 | 22880 ft | 321 kts | 6° |
| 2026-04-20 22:36 | 61.27247 | -149.87039 | 23454 ft | 325 kts | 6° |
| 2026-04-20 22:36 | 61.29463 | -149.86127 | 23957 ft | 328 kts | 6° |
| 2026-04-20 22:37 | 61.31727 | -149.85193 | 24459 ft | 331 kts | 6° |
| 2026-04-20 22:37 | 61.33718 | -149.84373 | 24880 ft | 335 kts | 6° |
| 2026-04-20 22:37 | 61.36059 | -149.83417 | 24981 ft | 353 kts | 6° |
| 2026-04-20 22:37 | 61.38537 | -149.82400 | 24996 ft | 371 kts | 7° |
| 2026-04-20 22:38 | 61.41092 | -149.81334 | 25036 ft | 386 kts | 7° |
| 2026-04-20 22:38 | 61.42951 | -149.80557 | 25037 ft | 395 kts | 7° |
| 2026-04-20 22:38 | 61.45705 | -149.79417 | 25038 ft | 407 kts | 7° |
| 2026-04-20 22:38 | 61.48500 | -149.78259 | 25033 ft | 416 kts | 7° |
| 2026-04-20 22:39 | 61.51377 | -149.77055 | 25027 ft | 423 kts | 8° |
| 2026-04-20 22:39 | 61.54241 | -149.75852 | 25036 ft | 423 kts | 8° |
| 2026-04-20 22:39 | 61.57135 | -149.74645 | 25036 ft | 421 kts | 7° |
| 2026-04-20 22:39 | 61.60025 | -149.73441 | 25036 ft | 421 kts | 7° |
| 2026-04-20 22:40 | 61.62876 | -149.72242 | 25030 ft | 421 kts | 8° |
| 2026-04-20 22:40 | 61.65761 | -149.71023 | 25032 ft | 422 kts | 8° |
| 2026-04-20 22:40 | 61.68621 | -149.69822 | 25030 ft | 422 kts | 8° |
| 2026-04-20 22:40 | 61.71507 | -149.68607 | 25030 ft | 422 kts | 8° |
| 2026-04-20 22:41 | 61.73422 | -149.67794 | 25029 ft | 422 kts | 8° |
| 2026-04-20 22:41 | 61.77253 | -149.66167 | 25023 ft | 423 kts | 8° |
| 2026-04-20 22:41 | 61.79209 | -149.65344 | 25023 ft | 423 kts | 8° |
| 2026-04-20 22:41 | 61.82059 | -149.64133 | 25022 ft | 422 kts | 8° |
| 2026-04-20 22:42 | 61.84965 | -149.62895 | 25021 ft | 423 kts | 8° |
| 2026-04-20 22:42 | 61.87827 | -149.61674 | 25013 ft | 423 kts | 8° |
| 2026-04-20 22:42 | 61.90737 | -149.60425 | 25010 ft | 423 kts | 8° |
| 2026-04-20 22:42 | 61.93600 | -149.59204 | 25009 ft | 423 kts | 8° |
| 2026-04-20 22:43 | 61.96487 | -149.57965 | 25007 ft | 424 kts | 8° |
| 2026-04-20 22:43 | 61.99364 | -149.56719 | 24999 ft | 424 kts | 8° |
| 2026-04-20 22:43 | 62.02259 | -149.55474 | 25002 ft | 423 kts | 8° |
| 2026-04-20 22:43 | 62.05160 | -149.54236 | 24998 ft | 424 kts | 8° |
| 2026-04-20 22:44 | 62.08063 | -149.52975 | 24998 ft | 423 kts | 8° |
| 2026-04-20 22:44 | 62.10918 | -149.51726 | 24991 ft | 425 kts | 8° |
| 2026-04-20 22:44 | 62.13825 | -149.50474 | 24993 ft | 425 kts | 8° |
| 2026-04-20 22:44 | 62.16724 | -149.49219 | 24990 ft | 424 kts | 8° |
| 2026-04-20 22:45 | 62.19622 | -149.47948 | 24989 ft | 424 kts | 8° |
| 2026-04-20 22:45 | 62.22488 | -149.46693 | 24982 ft | 425 kts | 8° |
| 2026-04-20 22:45 | 62.25406 | -149.45419 | 24981 ft | 426 kts | 8° |
| 2026-04-20 22:45 | 62.28316 | -149.44149 | 24982 ft | 425 kts | 8° |
| 2026-04-20 22:46 | 62.31187 | -149.42883 | 24985 ft | 425 kts | 8° |
| 2026-04-20 22:46 | 62.34111 | -149.41595 | 24975 ft | 427 kts | 8° |
| 2026-04-20 22:46 | 62.36946 | -149.40349 | 24979 ft | 426 kts | 8° |
| 2026-04-20 22:46 | 62.39800 | -149.39089 | 24973 ft | 426 kts | 8° |
| 2026-04-20 22:47 | 62.42712 | -149.37795 | 24975 ft | 427 kts | 9° |
| 2026-04-20 22:47 | 62.45628 | -149.36497 | 24974 ft | 427 kts | 8° |
| 2026-04-20 22:47 | 62.48529 | -149.35216 | 24976 ft | 428 kts | 8° |
| 2026-04-20 22:47 | 62.51425 | -149.33934 | 24973 ft | 428 kts | 9° |
| 2026-04-20 22:48 | 62.54358 | -149.32616 | 24973 ft | 428 kts | 9° |
| 2026-04-20 22:48 | 62.57259 | -149.31311 | 24967 ft | 428 kts | 9° |
| 2026-04-20 22:48 | 62.60198 | -149.30000 | 24967 ft | 429 kts | 9° |
| 2026-04-20 22:48 | 62.63095 | -149.28705 | 24971 ft | 429 kts | 9° |
| 2026-04-20 22:49 | 62.66026 | -149.27380 | 24969 ft | 429 kts | 9° |
| 2026-04-20 22:49 | 62.68956 | -149.26058 | 24962 ft | 430 kts | 9° |
| 2026-04-20 22:49 | 62.71861 | -149.24752 | 24964 ft | 430 kts | 9° |
| 2026-04-20 22:49 | 62.74804 | -149.23419 | 24962 ft | 430 kts | 9° |
| 2026-04-20 22:50 | 62.77746 | -149.22078 | 24964 ft | 429 kts | 9° |
| 2026-04-20 22:50 | 62.80653 | -149.20760 | 24969 ft | 430 kts | 9° |
| 2026-04-20 22:50 | 62.83564 | -149.19440 | 24967 ft | 431 kts | 9° |
| 2026-04-20 22:50 | 62.86507 | -149.18094 | 24968 ft | 430 kts | 9° |
| 2026-04-20 22:51 | 62.89453 | -149.16744 | 24967 ft | 430 kts | 9° |
| 2026-04-20 22:51 | 62.92353 | -149.15413 | 24967 ft | 431 kts | 9° |
| 2026-04-20 22:51 | 62.95306 | -149.14061 | 24972 ft | 432 kts | 9° |
| 2026-04-20 22:51 | 62.98260 | -149.12717 | 24970 ft | 432 kts | 9° |
| 2026-04-20 22:52 | 63.01175 | -149.11369 | 24970 ft | 431 kts | 9° |
| 2026-04-20 22:52 | 63.04128 | -149.09993 | 24965 ft | 431 kts | 9° |
| 2026-04-20 22:52 | 63.07042 | -149.08638 | 24964 ft | 432 kts | 9° |
| 2026-04-20 22:52 | 63.09996 | -149.07272 | 24962 ft | 431 kts | 9° |
| 2026-04-20 22:53 | 63.12916 | -149.05926 | 24965 ft | 432 kts | 9° |
| 2026-04-20 22:53 | 63.15862 | -149.04549 | 24955 ft | 433 kts | 9° |
| 2026-04-20 22:53 | 63.18816 | -149.03163 | 24959 ft | 432 kts | 9° |
| 2026-04-20 22:53 | 63.21742 | -149.01799 | 24961 ft | 432 kts | 9° |
| 2026-04-20 22:54 | 63.24696 | -149.00424 | 24961 ft | 432 kts | 9° |
| 2026-04-20 22:54 | 63.27645 | -148.99035 | 24958 ft | 433 kts | 9° |
| 2026-04-20 22:54 | 63.30547 | -148.97373 | 24958 ft | 434 kts | 13° |
| 2026-04-20 22:54 | 63.33463 | -148.95522 | 24954 ft | 434 kts | 13° |
| 2026-04-20 22:55 | 63.36349 | -148.93754 | 24948 ft | 434 kts | 12° |
| 2026-04-20 22:55 | 63.39289 | -148.92016 | 24942 ft | 435 kts | 12° |
| 2026-04-20 22:55 | 63.42214 | -148.90228 | 24930 ft | 435 kts | 13° |
| 2026-04-20 22:55 | 63.45095 | -148.88418 | 24921 ft | 435 kts | 13° |
| 2026-04-20 22:56 | 63.48018 | -148.86606 | 24912 ft | 434 kts | 13° |
| 2026-04-20 22:56 | 63.50940 | -148.84838 | 24915 ft | 434 kts | 12° |
| 2026-04-20 22:56 | 63.53876 | -148.83037 | 24906 ft | 436 kts | 13° |
| 2026-04-20 22:56 | 63.56772 | -148.81218 | 24901 ft | 435 kts | 13° |
| 2026-04-20 22:57 | 63.59672 | -148.79404 | 24895 ft | 435 kts | 13° |
| 2026-04-20 22:57 | 63.62611 | -148.77597 | 24882 ft | 435 kts | 13° |
| 2026-04-20 22:57 | 63.65513 | -148.75793 | 24874 ft | 436 kts | 13° |
| 2026-04-20 22:57 | 63.68436 | -148.73952 | 24872 ft | 435 kts | 13° |
| 2026-04-20 22:58 | 63.71301 | -148.72159 | 24870 ft | 435 kts | 13° |
| 2026-04-20 22:58 | 63.74239 | -148.70326 | 24878 ft | 436 kts | 13° |
| 2026-04-20 22:58 | 63.77136 | -148.68510 | 24882 ft | 435 kts | 13° |
| 2026-04-20 22:58 | 63.80017 | -148.66686 | 24886 ft | 436 kts | 13° |
| 2026-04-20 22:59 | 63.82909 | -148.64847 | 24635 ft | 420 kts | 13° |
| 2026-04-20 22:59 | 63.85634 | -148.63126 | 24119 ft | 405 kts | 12° |
| 2026-04-20 22:59 | 63.88349 | -148.61422 | 23604 ft | 399 kts | 12° |
| 2026-04-20 22:59 | 63.90984 | -148.59743 | 23050 ft | 394 kts | 12° |
| 2026-04-20 23:00 | 63.93616 | -148.58057 | 22520 ft | 387 kts | 12° |
| 2026-04-20 23:00 | 63.96182 | -148.56426 | 22023 ft | 384 kts | 12° |
| 2026-04-20 23:00 | 63.98749 | -148.54798 | 21526 ft | 380 kts | 12° |
| 2026-04-20 23:00 | 64.01276 | -148.53176 | 21031 ft | 374 kts | 13° |
| 2026-04-20 23:01 | 64.03779 | -148.51559 | 20540 ft | 369 kts | 13° |
| 2026-04-20 23:01 | 64.06247 | -148.49981 | 20052 ft | 365 kts | 12° |
| 2026-04-20 23:01 | 64.08683 | -148.48408 | 19573 ft | 360 kts | 13° |
| 2026-04-20 23:01 | 64.11057 | -148.46870 | 19104 ft | 356 kts | 13° |
| 2026-04-20 23:02 | 64.13429 | -148.45335 | 18636 ft | 351 kts | 13° |
| 2026-04-20 23:02 | 64.15743 | -148.43838 | 18181 ft | 346 kts | 13° |
| 2026-04-20 23:02 | 64.18052 | -148.42331 | 17683 ft | 342 kts | 13° |
| 2026-04-20 23:02 | 64.20345 | -148.40837 | 17225 ft | 340 kts | 12° |
| 2026-04-20 23:03 | 64.22616 | -148.39360 | 16783 ft | 337 kts | 12° |
| 2026-04-20 23:03 | 64.24841 | -148.37906 | 16342 ft | 335 kts | 12° |
| 2026-04-20 23:03 | 64.27082 | -148.36431 | 15898 ft | 332 kts | 12° |
| 2026-04-20 23:03 | 64.29308 | -148.34978 | 15462 ft | 330 kts | 11° |
| 2026-04-20 23:04 | 64.31485 | -148.33551 | 15027 ft | 327 kts | 11° |
| 2026-04-20 23:04 | 64.33668 | -148.32106 | 14594 ft | 325 kts | 11° |
| 2026-04-20 23:04 | 64.35762 | -148.30059 | 14166 ft | 329 kts | 27° |
| 2026-04-20 23:04 | 64.37670 | -148.27066 | 13739 ft | 329 kts | 31° |
| 2026-04-20 23:05 | 64.39545 | -148.24186 | 13285 ft | 326 kts | 28° |
| 2026-04-20 23:05 | 64.41451 | -148.21382 | 12844 ft | 322 kts | 29° |
| 2026-04-20 23:05 | 64.43293 | -148.18550 | 12418 ft | 319 kts | 30° |
| 2026-04-20 23:05 | 64.44873 | -148.16057 | 12057 ft | 310 kts | 30° |
| 2026-04-20 23:06 | 64.46614 | -148.13360 | 11625 ft | 291 kts | 30° |
| 2026-04-20 23:06 | 64.48227 | -148.10908 | 11192 ft | 277 kts | 30° |
| 2026-04-20 23:06 | 64.49779 | -148.08514 | 10754 ft | 267 kts | 30° |
| 2026-04-20 23:06 | 64.51280 | -148.06182 | 10321 ft | 259 kts | 30° |
| 2026-04-20 23:07 | 64.52778 | -148.03866 | 9880 ft | 256 kts | 30° |
| 2026-04-20 23:07 | 64.54258 | -148.01572 | 9418 ft | 254 kts | 31° |
| 2026-04-20 23:07 | 64.55713 | -147.99311 | 8942 ft | 253 kts | 31° |
| 2026-04-20 23:07 | 64.57185 | -147.97022 | 8473 ft | 253 kts | 31° |
| 2026-04-20 23:08 | 64.58639 | -147.94757 | 8022 ft | 253 kts | 32° |
| 2026-04-20 23:08 | 64.60104 | -147.92471 | 7573 ft | 252 kts | 32° |
| 2026-04-20 23:08 | 64.61573 | -147.90177 | 7132 ft | 252 kts | 32° |
| 2026-04-20 23:08 | 64.63017 | -147.87920 | 6712 ft | 251 kts | 33° |
| 2026-04-20 23:09 | 64.64471 | -147.85642 | 6288 ft | 251 kts | 33° |
| 2026-04-20 23:09 | 64.65905 | -147.83395 | 5856 ft | 248 kts | 33° |
| 2026-04-20 23:09 | 64.67323 | -147.81167 | 5414 ft | 241 kts | 34° |
| 2026-04-20 23:09 | 64.68698 | -147.79002 | 4984 ft | 234 kts | 34° |
| 2026-04-20 23:10 | 64.70002 | -147.76950 | 4823 ft | 226 kts | 30° |
| 2026-04-20 23:10 | 64.71344 | -147.74845 | 4918 ft | 234 kts | 30° |
| 2026-04-20 23:10 | 64.72705 | -147.72699 | 4930 ft | 237 kts | 31° |
| 2026-04-20 23:10 | 64.74042 | -147.70582 | 4931 ft | 235 kts | 31° |
| 2026-04-20 23:11 | 64.75399 | -147.68428 | 4917 ft | 234 kts | 31° |
| 2026-04-20 23:11 | 64.76785 | -147.66422 | 4911 ft | 233 kts | 26° |
| 2026-04-20 23:11 | 64.78188 | -147.64555 | 4910 ft | 233 kts | 27° |
| 2026-04-20 23:11 | 64.79601 | -147.62625 | 4916 ft | 234 kts | 27° |
| 2026-04-20 23:12 | 64.80994 | -147.60732 | 4910 ft | 234 kts | 27° |
| 2026-04-20 23:12 | 64.82404 | -147.58809 | 4911 ft | 233 kts | 27° |
| 2026-04-20 23:12 | 64.83810 | -147.56891 | 4917 ft | 233 kts | 27° |
| 2026-04-20 23:12 | 64.85200 | -147.55006 | 4912 ft | 232 kts | 27° |
| 2026-04-20 23:13 | 64.86647 | -147.53288 | 4860 ft | 233 kts | 18° |
| 2026-04-20 23:13 | 64.88239 | -147.52558 | 4166 ft | 234 kts | 355° |
| 2026-04-20 23:13 | 64.89742 | -147.53596 | 3516 ft | 218 kts | 320° |
| 2026-04-20 23:13 | 64.90490 | -147.56116 | 3173 ft | 169 kts | 283° |
| 2026-04-20 23:14 | 64.90656 | -147.58544 | 2983 ft | 136 kts | 266° |
| 2026-04-20 23:14 | 64.90609 | -147.60610 | 2830 ft | 116 kts | 262° |
| 2026-04-20 23:14 | 64.90552 | -147.62557 | 2505 ft | 124 kts | 263° |
| 2026-04-20 23:14 | 64.90469 | -147.64549 | 2360 ft | 122 kts | 256° |
| 2026-04-20 23:15 | 64.90162 | -147.66365 | 2406 ft | 117 kts | 238° |
| 2026-04-20 23:15 | 64.89737 | -147.67978 | 2547 ft | 116 kts | 238° |
| 2026-04-20 23:15 | 64.89326 | -147.69616 | 2661 ft | 118 kts | 237° |
| 2026-04-20 23:15 | 64.88833 | -147.71237 | 2450 ft | 123 kts | 232° |
| 2026-04-20 23:16 | 64.88279 | -147.72801 | 2211 ft | 125 kts | 228° |
| 2026-04-20 23:16 | 64.87699 | -147.74292 | 1914 ft | 125 kts | 227° |
| 2026-04-20 23:16 | 64.87112 | -147.75795 | 1598 ft | 123 kts | 223° |
| 2026-04-20 23:16 | 64.86448 | -147.77053 | 1291 ft | 123 kts | 219° |
| 2026-04-20 23:17 | 64.85779 | -147.78323 | 1007 ft | 125 kts | 218° |
| 2026-04-20 23:17 | 64.85071 | -147.79629 | 882 ft | 137 kts | 216° |
| 2026-04-20 23:17 | 64.84290 | -147.81073 | 823 ft | 143 kts | 219° |
| 2026-04-20 23:17 | 64.83577 | -147.82429 | 671 ft | 120 kts | 218° |
| 2026-04-20 23:18 | 64.82978 | -147.83633 | 514 ft | 112 kts | 213° |
| 2026-04-20 23:18 | 64.82403 | -147.84689 | 442 ft | 91 kts | 204° |
| 2026-04-20 23:18 | 64.81986 | -147.85424 | 442 ft | 58 kts | 218° |
| 2026-04-20 23:18 | 64.81780 | -147.85788 | 433 ft | 29 kts | 219° |
| 2026-04-20 23:19 | 64.81657 | -147.85977 | 435 ft | 13 kts | 182° |
| 2026-04-20 23:19 | 64.81596 | -147.85890 | 436 ft | 16 kts | 125° |
| 2026-04-20 23:19 | 64.81579 | -147.85839 | 433 ft | 4 kts | 153° |
| 2026-04-20 23:19 | 64.81497 | -147.85758 | 434 ft | 11 kts | 141° |
| 2026-04-20 23:20 | 64.81436 | -147.85604 | 436 ft | 13 kts | 129° |
| 2026-04-20 23:20 | 64.81384 | -147.85455 | 435 ft | 11 kts | 129° |
| 2026-04-20 23:20 | 64.81351 | -147.85354 | 435 ft | 0 kts | 121° |
| 2026-04-20 23:21 | 64.81350 | -147.85351 | 431 ft | 3 kts | 120° |
| 2026-04-20 23:21 | 64.81327 | -147.85276 | 436 ft | 4 kts | 128° |
| 2026-04-20 23:21 | 64.81292 | -147.85167 | 431 ft | 15 kts | 127° |
| 2026-04-20 23:22 | 64.81263 | -147.84984 | 429 ft | 10 kts | 48° |
| 2026-04-20 23:22 | 64.81323 | -147.84870 | 431 ft | 13 kts | 41° |
| 2026-04-20 23:22 | 64.81333 | -147.84800 | 435 ft | 5 kts | 117° |
| 2026-04-20 23:22 | 64.81314 | -147.84770 | 433 ft | 0 kts | 224° |